Time;durP1;ratioP1;P1;durP2;ratioP2;P2;SDS_P1;SDS_P2;PMS_P1;PMS_P2;Temp;Humidity;BMP_temperature;BMP_pressure;BME280_temperature;BME280_humidity;BME280_pressure;Samples;Min_cycle;Max_cycle;Signal;HPM_P1;HPM_P2
2021/06/17 00:01:12;;;;;;;7.20;6.50;;;;;;;;;;5056323;28;20174;-54
2021/06/17 00:03:39;;;;;;;7.17;6.57;;;;;;;;;;5055278;28;20180;-54
2021/06/17 00:06:05;;;;;;;7.53;6.83;;;;;;;;;;5056511;28;20234;-55
2021/06/17 00:08:32;;;;;;;7.33;6.73;;;;;;;;;;5054791;28;20189;-55
2021/06/17 00:10:58;;;;;;;7.73;7.03;;;;;;;;;;5056224;28;20240;-54
2021/06/17 00:13:26;;;;;;;7.80;7.20;;;;;;;;;;5055912;28;20179;-55
2021/06/17 00:15:55;;;;;;;8.00;7.00;;;;;;;;;;5055926;28;20234;-54
2021/06/17 00:18:21;;;;;;;7.43;6.83;;;;;;;;;;5054690;28;20249;-55
2021/06/17 00:20:48;;;;;;;6.63;6.13;;;;;;;;;;5056549;28;20473;-55
2021/06/17 00:23:15;;;;;;;6.90;6.30;;;;;;;;;;5055052;28;20187;-54
2021/06/17 00:25:41;;;;;;;6.80;6.20;;;;;;;;;;5056097;28;20690;-55
2021/06/17 00:28:07;;;;;;;6.53;6.03;;;;;;;;;;5054650;28;20516;-54
2021/06/17 00:30:34;;;;;;;7.53;6.93;;;;;;;;;;5055299;28;20246;-54
2021/06/17 00:33:00;;;;;;;6.97;6.47;;;;;;;;;;5053526;28;20666;-55
2021/06/17 00:35:28;;;;;;;7.43;6.83;;;;;;;;;;5054491;28;20212;-57
2021/06/17 00:37:54;;;;;;;7.50;6.77;;;;;;;;;;5054846;28;20236;-53
2021/06/17 00:40:22;;;;;;;7.33;6.73;;;;;;;;;;5055436;28;20177;-54
2021/06/17 00:42:49;;;;;;;7.90;7.20;;;;;;;;;;5058005;28;20207;-55
2021/06/17 00:45:18;;;;;;;7.60;7.00;;;;;;;;;;5058759;28;20174;-54
2021/06/17 00:47:44;;;;;;;7.03;6.40;;;;;;;;;;5057321;28;20264;-53
2021/06/17 00:50:10;;;;;;;6.87;6.30;;;;;;;;;;5055830;28;20200;-55
2021/06/17 00:52:37;;;;;;;7.73;6.97;;;;;;;;;;5052751;28;20189;-55
2021/06/17 00:55:04;;;;;;;7.50;6.90;;;;;;;;;;5055279;28;20229;-54
2021/06/17 00:57:30;;;;;;;7.13;6.43;;;;;;;;;;5055879;28;20182;-55
2021/06/17 00:59:56;;;;;;;7.27;6.67;;;;;;;;;;5056516;28;20196;-54
2021/06/17 01:02:22;;;;;;;7.30;6.70;;;;;;;;;;5055338;28;20680;-53
2021/06/17 01:04:48;;;;;;;6.90;6.40;;;;;;;;;;5066916;28;20184;-54
2021/06/17 01:07:19;;;;;;;7.30;6.63;;;;;;;;;;5055786;28;20227;-53
2021/06/17 01:10:07;;;;;;;8.20;6.67;;;;;;;;;;5056726;28;20231;-54
2021/06/17 01:12:52;;;;;;;7.00;6.40;;;;;;;;;;5055203;28;20624;-54
2021/06/17 01:15:19;;;;;;;7.43;6.83;;;;;;;;;;5036660;28;20221;-53
2021/06/17 01:18:06;;;;;;;6.97;6.47;;;;;;;;;;5047437;28;20173;-54
2021/06/17 01:20:34;;;;;;;6.50;6.00;;;;;;;;;;5049329;28;20759;-56
2021/06/17 01:23:19;;;;;;;7.10;6.60;;;;;;;;;;5053882;28;20173;-54
2021/06/17 01:26:04;;;;;;;6.80;6.10;;;;;;;;;;5054454;28;20276;-54
2021/06/17 01:28:31;;;;;;;7.17;6.67;;;;;;;;;;5054515;28;20185;-55
2021/06/17 01:31:06;;;;;;;6.63;6.07;;;;;;;;;;5055880;28;20223;-54
2021/06/17 01:33:37;;;;;;;6.97;6.37;;;;;;;;;;5053540;28;20189;-54
2021/06/17 01:36:04;;;;;;;6.90;6.30;;;;;;;;;;5055584;28;20201;-53
2021/06/17 01:38:32;;;;;;;6.10;5.60;;;;;;;;;;5054390;28;20196;-55
2021/06/17 01:40:58;;;;;;;6.73;6.13;;;;;;;;;;5055827;28;20180;-55
2021/06/17 01:43:24;;;;;;;6.93;6.30;;;;;;;;;;5054705;28;20189;-53
2021/06/17 01:45:51;;;;;;;7.13;6.53;;;;;;;;;;5058749;28;20267;-53
2021/06/17 01:48:17;;;;;;;7.23;6.63;;;;;;;;;;5054124;28;20177;-53
2021/06/17 01:50:44;;;;;;;9.33;6.53;;;;;;;;;;5054335;28;20189;-54
2021/06/17 01:53:12;;;;;;;6.33;5.83;;;;;;;;;;5050802;28;20272;-56
2021/06/17 01:55:39;;;;;;;7.63;6.93;;;;;;;;;;5061068;28;20212;-55
2021/06/17 01:58:06;;;;;;;7.57;6.73;;;;;;;;;;5056840;28;20174;-53
2021/06/17 02:00:32;;;;;;;7.03;6.47;;;;;;;;;;5053041;28;20195;-54
2021/06/17 02:03:00;;;;;;;7.00;6.50;;;;;;;;;;5052224;28;20212;-56
2021/06/17 02:05:26;;;;;;;7.03;6.33;;;;;;;;;;5053702;28;20181;-54
2021/06/17 02:07:52;;;;;;;6.70;6.10;;;;;;;;;;5054451;28;20662;-53
2021/06/17 02:10:19;;;;;;;6.97;6.37;;;;;;;;;;5055616;28;20230;-53
2021/06/17 02:12:46;;;;;;;7.23;6.53;;;;;;;;;;5054329;28;20183;-54
2021/06/17 02:15:12;;;;;;;6.60;6.10;;;;;;;;;;5054894;28;20225;-54
2021/06/17 02:17:39;;;;;;;7.20;6.17;;;;;;;;;;5054082;28;20176;-55
2021/06/17 02:20:08;;;;;;;6.53;5.97;;;;;;;;;;5054784;28;20221;-54
2021/06/17 02:22:36;;;;;;;7.47;6.87;;;;;;;;;;5053927;28;20252;-55
2021/06/17 02:25:02;;;;;;;6.97;6.37;;;;;;;;;;5055235;28;20682;-55
2021/06/17 02:27:29;;;;;;;7.07;6.43;;;;;;;;;;5041184;28;20189;-55
2021/06/17 02:29:57;;;;;;;6.17;5.60;;;;;;;;;;5068825;28;20183;-55
2021/06/17 02:32:24;;;;;;;6.77;6.17;;;;;;;;;;5054356;28;20264;-54
2021/06/17 02:34:50;;;;;;;5.87;5.37;;;;;;;;;;5055832;28;20197;-54
2021/06/17 02:37:17;;;;;;;6.93;6.33;;;;;;;;;;5054450;28;20629;-53
2021/06/17 02:39:44;;;;;;;6.63;6.13;;;;;;;;;;5059494;28;20181;-56
2021/06/17 02:42:11;;;;;;;6.73;6.13;;;;;;;;;;5058564;28;20178;-54
2021/06/17 02:44:37;;;;;;;6.13;5.63;;;;;;;;;;5059065;28;20189;-53
2021/06/17 02:47:04;;;;;;;6.87;6.33;;;;;;;;;;5058723;28;20189;-55
2021/06/17 02:49:30;;;;;;;7.00;6.43;;;;;;;;;;5058477;28;20197;-54
2021/06/17 02:51:56;;;;;;;6.57;6.00;;;;;;;;;;5058430;28;20181;-54
2021/06/17 02:54:22;;;;;;;6.60;6.10;;;;;;;;;;5039961;28;20556;-54
2021/06/17 02:57:06;;;;;;;7.17;6.57;;;;;;;;;;5058776;28;20633;-54
2021/06/17 02:59:47;;;;;;;7.37;6.67;;;;;;;;;;5058571;28;20190;-54
2021/06/17 03:02:16;;;;;;;7.00;6.37;;;;;;;;;;5057312;28;20216;-55
2021/06/17 03:05:01;;;;;;;6.83;6.23;;;;;;;;;;5073278;28;20304;-54
2021/06/17 03:07:31;;;;;;;6.77;6.27;;;;;;;;;;5057853;28;20192;-54
2021/06/17 03:10:01;;;;;;;7.20;6.50;;;;;;;;;;5058885;28;20208;-53
2021/06/17 03:12:28;;;;;;;6.33;5.83;;;;;;;;;;5058043;28;20212;-54
2021/06/17 03:14:55;;;;;;;6.30;5.80;;;;;;;;;;5058387;28;20233;-55
2021/06/17 03:17:22;;;;;;;6.53;5.93;;;;;;;;;;5057212;28;20215;-55
2021/06/17 03:19:50;;;;;;;6.50;5.90;;;;;;;;;;5057826;28;20650;-54
2021/06/17 03:22:16;;;;;;;6.93;6.33;;;;;;;;;;5056484;28;20185;-54
2021/06/17 03:24:45;;;;;;;6.80;6.10;;;;;;;;;;5040063;28;20272;-54
2021/06/17 03:27:11;;;;;;;6.33;5.83;;;;;;;;;;5057905;28;20197;-55
2021/06/17 03:29:42;;;;;;;6.80;6.20;;;;;;;;;;5058108;28;20182;-54
2021/06/17 03:32:10;;;;;;;7.43;6.80;;;;;;;;;;5055918;28;20235;-57
2021/06/17 03:34:38;;;;;;;6.47;5.90;;;;;;;;;;5056461;28;20209;-53
2021/06/17 03:37:05;;;;;;;6.63;6.13;;;;;;;;;;5060033;28;20351;-55
2021/06/17 03:39:31;;;;;;;6.60;6.10;;;;;;;;;;5058014;28;20185;-53
2021/06/17 03:42:00;;;;;;;6.53;5.93;;;;;;;;;;5056988;28;20177;-54
2021/06/17 03:44:27;;;;;;;6.37;5.73;;;;;;;;;;5060734;28;20265;-53
2021/06/17 03:46:54;;;;;;;6.07;5.57;;;;;;;;;;5059966;28;20181;-54
2021/06/17 03:49:22;;;;;;;7.00;6.30;;;;;;;;;;5043028;28;20987;-57
2021/06/17 03:51:48;;;;;;;6.53;5.97;;;;;;;;;;5057615;28;20181;-54
2021/06/17 03:54:23;;;;;;;6.43;5.83;;;;;;;;;;5062584;28;20682;-55
2021/06/17 03:56:51;;;;;;;6.57;5.97;;;;;;;;;;5058016;28;20200;-54
2021/06/17 03:59:17;;;;;;;6.80;6.20;;;;;;;;;;5049440;28;20174;-54
2021/06/17 04:01:44;;;;;;;5.67;5.27;;;;;;;;;;5037740;28;20283;-53
2021/06/17 04:04:10;;;;;;;5.97;5.57;;;;;;;;;;5055353;28;20192;-54
2021/06/17 04:06:37;;;;;;;6.50;5.87;;;;;;;;;;5054583;28;20572;-54
2021/06/17 04:09:04;;;;;;;5.77;5.10;;;;;;;;;;5055026;28;20199;-55
2021/06/17 04:11:31;;;;;;;6.83;6.23;;;;;;;;;;5055525;28;20223;-55
2021/06/17 04:13:58;;;;;;;6.97;6.37;;;;;;;;;;5056597;28;20265;-54
2021/06/17 04:16:26;;;;;;;7.13;6.10;;;;;;;;;;5054642;28;20222;-54
2021/06/17 04:18:56;;;;;;;6.73;6.13;;;;;;;;;;5055034;28;20915;-54
2021/06/17 04:21:23;;;;;;;6.43;5.83;;;;;;;;;;5053843;28;20182;-54
2021/06/17 04:23:54;;;;;;;7.03;6.40;;;;;;;;;;5054499;28;20174;-55
2021/06/17 04:26:21;;;;;;;6.43;5.83;;;;;;;;;;5054833;28;20185;-55
2021/06/17 04:28:48;;;;;;;6.10;5.60;;;;;;;;;;5051059;28;20186;-55
2021/06/17 04:31:15;;;;;;;6.47;5.90;;;;;;;;;;5055829;28;20188;-54
2021/06/17 04:33:42;;;;;;;6.53;6.03;;;;;;;;;;5054886;28;20781;-55
2021/06/17 04:36:08;;;;;;;7.10;5.57;;;;;;;;;;5054056;28;20204;-55
2021/06/17 04:38:34;;;;;;;6.63;5.93;;;;;;;;;;5054367;28;20213;-56
2021/06/17 04:41:01;;;;;;;6.23;5.70;;;;;;;;;;5052065;28;20192;-57
2021/06/17 04:43:27;;;;;;;6.13;5.63;;;;;;;;;;5053486;28;20178;-54
2021/06/17 04:45:54;;;;;;;5.20;4.80;;;;;;;;;;5065970;28;20238;-53
2021/06/17 04:48:22;;;;;;;6.07;5.40;;;;;;;;;;5056038;28;20185;-54
2021/06/17 04:50:48;;;;;;;5.90;5.40;;;;;;;;;;5046627;28;20226;-55
2021/06/17 04:53:16;;;;;;;6.03;5.53;;;;;;;;;;5053362;28;20431;-54
2021/06/17 04:55:47;;;;;;;6.10;5.50;;;;;;;;;;5049574;28;20370;-54
2021/06/17 04:58:13;;;;;;;7.03;6.03;;;;;;;;;;5052072;28;20236;-58
2021/06/17 05:00:40;;;;;;;6.00;5.20;;;;;;;;;;5051450;28;20180;-55
2021/06/17 05:03:06;;;;;;;5.60;5.10;;;;;;;;;;5036543;28;20278;-55
2021/06/17 05:05:32;;;;;;;5.57;5.17;;;;;;;;;;5055854;28;20604;-54
2021/06/17 05:10:48;;;;;;;6.53;5.40;;;;;;;;;;5051225;28;20204;-54
2021/06/17 05:13:15;;;;;;;6.77;6.17;;;;;;;;;;5053543;28;20219;-54
2021/06/17 05:15:41;;;;;;;5.73;5.23;;;;;;;;;;5053395;28;20239;-55
2021/06/17 05:18:07;;;;;;;5.83;5.33;;;;;;;;;;5053604;28;20181;-55
2021/06/17 05:20:33;;;;;;;5.60;5.20;;;;;;;;;;5053938;28;20182;-55
2021/06/17 05:22:59;;;;;;;6.23;5.30;;;;;;;;;;5051900;28;20631;-55
2021/06/17 05:25:26;;;;;;;6.20;5.60;;;;;;;;;;5054010;28;20183;-53
2021/06/17 05:27:52;;;;;;;5.50;5.00;;;;;;;;;;5054256;28;20247;-56
2021/06/17 05:30:18;;;;;;;5.83;5.20;;;;;;;;;;5035844;28;20181;-54
2021/06/17 05:32:44;;;;;;;6.90;5.63;;;;;;;;;;5029834;28;20280;-55
2021/06/17 05:35:11;;;;;;;6.30;5.67;;;;;;;;;;5051560;28;20230;-54
2021/06/17 05:37:37;;;;;;;5.57;4.40;;;;;;;;;;5047047;28;20180;-55
2021/06/17 05:40:04;;;;;;;6.53;5.60;;;;;;;;;;5047553;28;20581;-54
2021/06/17 05:42:30;;;;;;;7.00;5.20;;;;;;;;;;5045342;28;20178;-54
2021/06/17 05:44:57;;;;;;;6.23;5.23;;;;;;;;;;5048860;28;20555;-54
2021/06/17 05:47:23;;;;;;;5.00;4.27;;;;;;;;;;5043157;28;20552;-54
2021/06/17 05:49:49;;;;;;;5.13;4.70;;;;;;;;;;5047681;28;20234;-56
2021/06/17 05:52:15;;;;;;;5.03;4.63;;;;;;;;;;5029592;28;20302;-54
2021/06/17 05:54:41;;;;;;;6.47;4.67;;;;;;;;;;5049366;28;20217;-56
2021/06/17 05:57:07;;;;;;;6.03;5.17;;;;;;;;;;5047059;28;20235;-55
2021/06/17 05:59:33;;;;;;;8.97;4.77;;;;;;;;;;5046387;28;20337;-55
2021/06/17 06:01:59;;;;;;;5.57;4.90;;;;;;;;;;5047868;28;20200;-56
2021/06/17 06:04:25;;;;;;;5.43;4.93;;;;;;;;;;5046918;28;20199;-54
2021/06/17 06:06:51;;;;;;;5.87;4.70;;;;;;;;;;5048981;28;20180;-56
2021/06/17 06:09:19;;;;;;;8.53;5.37;;;;;;;;;;5048222;28;20188;-56
2021/06/17 06:11:45;;;;;;;4.77;4.37;;;;;;;;;;5030439;28;20195;-54
2021/06/17 06:14:11;;;;;;;5.60;5.10;;;;;;;;;;5046437;28;20301;-54
2021/06/17 06:16:37;;;;;;;4.93;4.53;;;;;;;;;;5046201;28;20738;-57
2021/06/17 06:19:06;;;;;;;5.53;4.60;;;;;;;;;;5044680;28;20195;-55
2021/06/17 06:21:33;;;;;;;5.07;4.63;;;;;;;;;;5047505;28;20530;-55
2021/06/17 06:23:59;;;;;;;5.37;4.60;;;;;;;;;;5053294;28;20188;-54
2021/06/17 06:26:25;;;;;;;5.37;4.40;;;;;;;;;;5049536;28;20188;-54
2021/06/17 06:28:51;;;;;;;6.27;4.30;;;;;;;;;;5051859;28;20181;-54
2021/06/17 06:31:17;;;;;;;5.53;4.40;;;;;;;;;;5054558;28;20177;-53
2021/06/17 06:33:43;;;;;;;4.93;4.53;;;;;;;;;;5052048;28;20189;-54
2021/06/17 06:36:09;;;;;;;6.07;4.63;;;;;;;;;;5049686;28;20216;-57
2021/06/17 06:38:35;;;;;;;5.27;4.20;;;;;;;;;;5041021;28;20177;-54
2021/06/17 06:41:01;;;;;;;4.60;4.20;;;;;;;;;;5046192;28;20194;-58
2021/06/17 06:43:27;;;;;;;6.13;4.37;;;;;;;;;;5049092;28;20276;-56
2021/06/17 06:45:53;;;;;;;5.03;4.30;;;;;;;;;;5049489;28;20211;-55
2021/06/17 06:48:19;;;;;;;4.40;3.93;;;;;;;;;;5048078;28;20197;-55
2021/06/17 06:50:47;;;;;;;4.90;4.40;;;;;;;;;;5051103;28;20181;-54
2021/06/17 06:53:14;;;;;;;4.93;4.53;;;;;;;;;;5040767;28;20196;-55
2021/06/17 06:55:40;;;;;;;4.33;3.93;;;;;;;;;;5044412;28;20231;-56
2021/06/17 06:58:06;;;;;;;4.93;4.43;;;;;;;;;;5029014;28;20178;-54
2021/06/17 07:00:33;;;;;;;4.60;4.20;;;;;;;;;;5047569;28;20185;-54
2021/06/17 07:02:59;;;;;;;4.90;4.40;;;;;;;;;;5048273;28;20285;-55
2021/06/17 07:05:26;;;;;;;4.77;4.00;;;;;;;;;;5051865;28;20231;-55
2021/06/17 07:07:52;;;;;;;4.93;4.43;;;;;;;;;;5039489;28;20273;-55
2021/06/17 07:10:18;;;;;;;5.33;4.50;;;;;;;;;;5045709;28;20220;-55
2021/06/17 07:12:44;;;;;;;5.40;4.27;;;;;;;;;;5045165;28;20182;-55
2021/06/17 07:15:11;;;;;;;4.60;4.20;;;;;;;;;;5048320;28;20237;-55
2021/06/17 07:17:37;;;;;;;7.47;4.57;;;;;;;;;;5049938;28;20174;-54
2021/06/17 07:20:04;;;;;;;4.83;4.43;;;;;;;;;;5049275;28;20192;-57
2021/06/17 07:22:30;;;;;;;5.93;4.10;;;;;;;;;;5045864;28;20182;-55
2021/06/17 07:24:56;;;;;;;4.60;4.20;;;;;;;;;;5046288;28;20177;-54
2021/06/17 07:27:22;;;;;;;4.23;3.83;;;;;;;;;;5050454;28;20457;-55
2021/06/17 07:29:49;;;;;;;5.97;4.40;;;;;;;;;;5055848;28;20189;-54
2021/06/17 07:32:14;;;;;;;6.00;3.50;;;;;;;;;;5059077;28;20220;-54
2021/06/17 07:34:44;;;;;;;5.03;4.63;;;;;;;;;;5056175;28;20205;-54
2021/06/17 07:37:10;;;;;;;5.90;4.70;;;;;;;;;;5050525;28;20260;-54
2021/06/17 07:39:36;;;;;;;4.40;4.00;;;;;;;;;;5048455;28;20315;-54
2021/06/17 07:42:02;;;;;;;7.63;5.70;;;;;;;;;;5045142;28;20737;-55
2021/06/17 07:44:28;;;;;;;4.73;4.27;;;;;;;;;;5053068;28;20201;-54
2021/06/17 07:46:54;;;;;;;5.00;4.47;;;;;;;;;;5053235;28;20185;-55
2021/06/17 07:49:20;;;;;;;4.77;4.37;;;;;;;;;;5052945;28;20226;-55
2021/06/17 07:51:46;;;;;;;6.00;4.20;;;;;;;;;;5052049;28;20181;-58
2021/06/17 07:54:12;;;;;;;7.10;4.07;;;;;;;;;;5048846;28;20180;-55
2021/06/17 07:56:38;;;;;;;4.63;4.20;;;;;;;;;;5046191;28;20209;-54
2021/06/17 07:59:04;;;;;;;5.20;4.70;;;;;;;;;;5033545;28;20185;-54
2021/06/17 08:01:30;;;;;;;4.83;4.40;;;;;;;;;;5054597;28;20216;-55
2021/06/17 08:03:56;;;;;;;6.03;4.70;;;;;;;;;;5053750;28;20170;-54
2021/06/17 08:06:22;;;;;;;5.57;4.57;;;;;;;;;;5054007;28;20185;-54
2021/06/17 08:08:48;;;;;;;5.13;4.47;;;;;;;;;;5047628;28;20181;-54
2021/06/17 08:11:14;;;;;;;5.00;3.90;;;;;;;;;;5048970;28;20185;-56
2021/06/17 08:13:40;;;;;;;6.43;4.43;;;;;;;;;;5050850;28;20319;-55
2021/06/17 08:16:06;;;;;;;5.07;4.67;;;;;;;;;;5044533;28;20744;-54
2021/06/17 08:18:32;;;;;;;4.97;4.57;;;;;;;;;;5033324;28;20652;-54
2021/06/17 08:21:01;;;;;;;6.63;4.70;;;;;;;;;;5035553;28;20629;-57
2021/06/17 08:23:27;;;;;;;5.07;4.57;;;;;;;;;;5029285;28;20260;-54
2021/06/17 08:25:53;;;;;;;6.17;4.27;;;;;;;;;;5027708;28;20189;-54
2021/06/17 08:28:24;;;;;;;5.20;4.47;;;;;;;;;;5027795;28;20183;-56
2021/06/17 08:30:50;;;;;;;4.93;4.47;;;;;;;;;;5038596;28;20196;-56
2021/06/17 08:33:16;;;;;;;4.77;4.30;;;;;;;;;;5015404;28;20594;-55
2021/06/17 08:35:42;;;;;;;8.17;4.73;;;;;;;;;;5032180;28;20205;-54
2021/06/17 08:38:09;;;;;;;6.37;4.13;;;;;;;;;;5030676;28;20182;-54
2021/06/17 08:40:35;;;;;;;4.83;4.33;;;;;;;;;;5031405;28;21037;-55
2021/06/17 08:43:02;;;;;;;5.20;4.70;;;;;;;;;;5029421;28;20189;-55
2021/06/17 08:45:28;;;;;;;4.77;4.37;;;;;;;;;;5032658;28;20177;-55
2021/06/17 08:47:54;;;;;;;4.67;4.20;;;;;;;;;;5035383;28;20655;-56
2021/06/17 08:50:21;;;;;;;5.10;4.60;;;;;;;;;;5037666;28;20680;-56
2021/06/17 08:52:47;;;;;;;6.80;4.70;;;;;;;;;;5033423;28;20192;-54
2021/06/17 08:55:23;;;;;;;4.53;4.13;;;;;;;;;;5013304;28;20208;-55
2021/06/17 08:57:51;;;;;;;4.90;4.50;;;;;;;;;;5026672;28;20187;-55
2021/06/17 09:00:17;;;;;;;5.97;4.43;;;;;;;;;;5030914;28;20201;-55
2021/06/17 09:02:53;;;;;;;4.70;4.30;;;;;;;;;;5032582;28;20198;-54
2021/06/17 09:05:19;;;;;;;4.70;4.07;;;;;;;;;;5030403;28;20221;-55
2021/06/17 09:07:45;;;;;;;5.63;5.10;;;;;;;;;;5032734;28;20206;-55
2021/06/17 09:10:12;;;;;;;7.87;4.40;;;;;;;;;;5029108;28;20562;-55
2021/06/17 09:12:44;;;;;;;6.60;4.00;;;;;;;;;;5026007;28;20653;-55
2021/06/17 09:15:11;;;;;;;4.87;4.47;;;;;;;;;;5032093;28;20231;-56
2021/06/17 09:17:37;;;;;;;4.43;3.80;;;;;;;;;;5030965;28;20728;-54
2021/06/17 09:20:04;;;;;;;6.40;4.27;;;;;;;;;;5033330;28;20186;-56
2021/06/17 09:22:30;;;;;;;4.97;4.57;;;;;;;;;;5032804;28;20704;-55
2021/06/17 09:24:57;;;;;;;5.13;4.60;;;;;;;;;;5027906;28;20181;-58
2021/06/17 09:27:31;;;;;;;4.63;4.23;;;;;;;;;;5026998;28;20246;-56
2021/06/17 09:29:58;;;;;;;5.03;4.60;;;;;;;;;;5027323;28;20203;-56
2021/06/17 09:32:25;;;;;;;4.40;4.10;;;;;;;;;;5037377;28;20182;-55
2021/06/17 09:34:51;;;;;;;4.93;4.00;;;;;;;;;;5033307;28;20200;-55
2021/06/17 09:37:30;;;;;;;6.10;4.27;;;;;;;;;;5033033;28;20225;-56
2021/06/17 09:39:57;;;;;;;6.47;4.57;;;;;;;;;;5024109;28;21767;-55
2021/06/17 09:42:29;;;;;;;5.47;4.57;;;;;;;;;;5008045;28;20425;-56
2021/06/17 09:44:55;;;;;;;5.43;4.70;;;;;;;;;;5034021;28;20200;-57
2021/06/17 09:47:22;;;;;;;10.17;5.63;;;;;;;;;;5040685;28;20190;-56
2021/06/17 09:49:48;;;;;;;4.70;4.30;;;;;;;;;;5044701;28;20598;-56
2021/06/17 09:52:16;;;;;;;5.30;4.77;;;;;;;;;;5031893;28;20184;-57
2021/06/17 09:54:43;;;;;;;4.47;4.07;;;;;;;;;;5027953;28;20231;-58
2021/06/17 09:57:19;;;;;;;6.57;4.67;;;;;;;;;;5025854;28;20255;-57
2021/06/17 09:59:49;;;;;;;4.77;4.33;;;;;;;;;;5028366;28;20177;-55
2021/06/17 10:02:21;;;;;;;4.87;4.37;;;;;;;;;;5033724;28;20211;-55
2021/06/17 10:04:48;;;;;;;5.03;4.00;;;;;;;;;;5034801;28;20194;-55
2021/06/17 10:07:14;;;;;;;4.93;4.53;;;;;;;;;;5031183;28;20231;-55
2021/06/17 10:09:40;;;;;;;5.87;4.13;;;;;;;;;;5029231;28;20258;-59
2021/06/17 10:12:06;;;;;;;5.60;4.43;;;;;;;;;;5027128;28;20183;-55
2021/06/17 10:14:33;;;;;;;5.03;4.60;;;;;;;;;;5029041;28;20267;-56
2021/06/17 10:16:59;;;;;;;4.70;4.10;;;;;;;;;;5030646;28;20188;-55
2021/06/17 10:19:26;;;;;;;5.17;4.20;;;;;;;;;;5028828;28;20565;-57
2021/06/17 10:21:52;;;;;;;5.03;4.63;;;;;;;;;;5035511;28;20224;-55
2021/06/17 10:24:20;;;;;;;5.63;5.13;;;;;;;;;;5016972;28;20177;-55
2021/06/17 10:26:49;;;;;;;4.70;4.30;;;;;;;;;;5034296;28;20670;-55
2021/06/17 10:29:34;;;;;;;5.27;4.50;;;;;;;;;;5030075;28;20189;-57
2021/06/17 10:32:00;;;;;;;4.70;4.33;;;;;;;;;;5030342;28;20179;-56
2021/06/17 10:34:29;;;;;;;5.57;4.90;;;;;;;;;;5028500;28;20186;-55
2021/06/17 10:37:15;;;;;;;5.43;4.93;;;;;;;;;;5031701;28;20193;-58
2021/06/17 10:39:41;;;;;;;6.20;5.60;;;;;;;;;;5034190;28;20182;-55
2021/06/17 10:42:17;;;;;;;4.60;4.23;;;;;;;;;;5025992;28;20259;-55
2021/06/17 10:44:43;;;;;;;4.87;4.47;;;;;;;;;;5035351;28;20680;-55
2021/06/17 10:47:10;;;;;;;5.67;5.07;;;;;;;;;;5029077;28;20194;-58
2021/06/17 10:49:48;;;;;;;4.97;4.57;;;;;;;;;;5030181;28;21786;-56
2021/06/17 10:52:24;;;;;;;6.17;4.57;;;;;;;;;;5031619;28;20203;-55
2021/06/17 10:54:58;;;;;;;4.97;4.57;;;;;;;;;;5044904;28;20190;-55
2021/06/17 10:57:48;;;;;;;5.50;5.10;;;;;;;;;;5026219;28;20232;-56
2021/06/17 11:00:23;;;;;;;4.90;4.50;;;;;;;;;;5034577;28;20185;-55
2021/06/17 11:03:01;;;;;;;5.17;4.83;;;;;;;;;;5032510;28;20192;-57
2021/06/17 11:05:34;;;;;;;4.70;4.30;;;;;;;;;;5036781;28;20190;-56
2021/06/17 11:08:19;;;;;;;7.43;5.20;;;;;;;;;;5033116;28;20188;-55
2021/06/17 11:10:45;;;;;;;6.55;4.50;;;;;;;;;;5033529;28;20185;-58
2021/06/17 11:13:26;;;;;;;5.13;4.72;;;;;;;;;;5037073;28;20516;-55
2021/06/17 11:15:52;;;;;;;5.50;5.00;;;;;;;;;;5040207;28;20287;-56
2021/06/17 11:18:37;;;;;;;5.57;5.07;;;;;;;;;;5028751;28;20769;-55
2021/06/17 11:21:03;;;;;;;5.68;5.13;;;;;;;;;;5033978;28;20213;-58
2021/06/17 11:23:29;;;;;;;5.28;4.78;;;;;;;;;;5026983;28;20181;-56
2021/06/17 11:26:02;;;;;;;5.53;5.00;;;;;;;;;;5034392;28;20189;-55
2021/06/17 11:28:47;;;;;;;5.05;4.68;;;;;;;;;;5031840;28;20186;-56
2021/06/17 11:31:32;;;;;;;5.20;4.70;;;;;;;;;;5032307;28;20274;-56
2021/06/17 11:33:59;;;;;;;5.18;4.63;;;;;;;;;;5027858;28;20184;-55
2021/06/17 11:36:25;;;;;;;6.15;4.78;;;;;;;;;;5033924;28;20193;-57
2021/06/17 11:38:52;;;;;;;8.57;4.90;;;;;;;;;;5034034;28;20181;-58
2021/06/17 11:41:19;;;;;;;6.03;5.18;;;;;;;;;;5016025;28;20184;-59
2021/06/17 11:43:51;;;;;;;5.13;4.72;;;;;;;;;;5024265;28;20180;-56
2021/06/17 11:46:18;;;;;;;4.72;4.30;;;;;;;;;;5028844;28;20190;-60
2021/06/17 11:48:51;;;;;;;5.05;4.60;;;;;;;;;;5032113;28;20182;-57
2021/06/17 11:51:17;;;;;;;5.00;4.28;;;;;;;;;;5027594;28;20287;-57
2021/06/17 11:53:48;;;;;;;5.00;4.45;;;;;;;;;;5034895;28;20193;-56
2021/06/17 11:56:22;;;;;;;4.70;4.35;;;;;;;;;;5031282;28;20209;-58
2021/06/17 11:58:48;;;;;;;5.90;5.30;;;;;;;;;;5027421;28;20174;-56
2021/06/17 12:01:14;;;;;;;4.97;4.07;;;;;;;;;;5010505;28;20237;-56
2021/06/17 12:03:51;;;;;;;7.45;4.57;;;;;;;;;;5029478;28;20572;-57
2021/06/17 12:06:18;;;;;;;6.07;5.10;;;;;;;;;;5034452;28;20320;-57
2021/06/17 12:08:44;;;;;;;4.95;4.45;;;;;;;;;;5035204;28;20698;-55
2021/06/17 12:11:20;;;;;;;5.28;4.78;;;;;;;;;;5032278;28;20535;-57
2021/06/17 12:13:50;;;;;;;6.72;4.88;;;;;;;;;;5026293;28;20253;-57
2021/06/17 12:16:22;;;;;;;4.93;4.45;;;;;;;;;;5044481;28;20240;-56
2021/06/17 12:18:49;;;;;;;5.03;4.63;;;;;;;;;;5048828;28;20188;-58
2021/06/17 12:21:22;;;;;;;6.05;4.88;;;;;;;;;;5052275;28;20177;-55
2021/06/17 12:23:48;;;;;;;6.15;4.35;;;;;;;;;;5049403;28;20618;-55
2021/06/17 12:26:14;;;;;;;4.85;4.43;;;;;;;;;;5053096;28;20177;-55
2021/06/17 12:28:56;;;;;;;5.13;4.60;;;;;;;;;;5046921;28;20240;-54
2021/06/17 12:31:29;;;;;;;6.50;4.60;;;;;;;;;;5047587;28;20200;-57
2021/06/17 12:34:08;;;;;;;7.35;5.22;;;;;;;;;;5047830;28;20173;-56
2021/06/17 12:36:35;;;;;;;5.20;4.80;;;;;;;;;;5051598;28;20626;-58
2021/06/17 12:39:08;;;;;;;6.40;5.20;;;;;;;;;;5035123;28;20257;-57
2021/06/17 12:41:40;;;;;;;5.35;4.88;;;;;;;;;;5049826;28;20188;-59
2021/06/17 12:44:06;;;;;;;6.22;4.93;;;;;;;;;;5047529;28;20694;-58
2021/06/17 12:46:37;;;;;;;5.47;5.00;;;;;;;;;;5026394;28;20196;-60
2021/06/17 12:54:23;;;;;;;7.10;5.72;;;;;;;;;;5049787;28;20200;-56
2021/06/17 12:56:53;;;;;;;5.57;5.07;;;;;;;;;;5051905;28;20237;-59
2021/06/17 12:59:33;;;;;;;8.75;5.03;;;;;;;;;;5044422;28;20263;-60
2021/06/17 13:01:59;;;;;;;5.53;4.80;;;;;;;;;;5046475;28;20234;-58
2021/06/17 13:04:25;;;;;;;5.93;5.43;;;;;;;;;;5047586;28;20652;-56
2021/06/17 13:06:51;;;;;;;6.38;5.88;;;;;;;;;;5049596;28;20183;-56
2021/06/17 13:09:20;;;;;;;8.13;6.03;;;;;;;;;;5049996;28;20509;-56
2021/06/17 13:11:46;;;;;;;5.97;5.40;;;;;;;;;;5031646;28;20221;-57
2021/06/17 13:14:12;;;;;;;6.65;5.90;;;;;;;;;;5047548;28;20193;-58
2021/06/17 13:16:38;;;;;;;7.97;5.45;;;;;;;;;;5045594;28;20597;-57
2021/06/17 13:19:08;;;;;;;6.10;5.20;;;;;;;;;;5046312;28;20220;-56
2021/06/17 13:21:34;;;;;;;8.70;5.15;;;;;;;;;;5050912;28;20284;-58
2021/06/17 13:24:01;;;;;;;5.88;5.28;;;;;;;;;;5031529;28;20219;-58
2021/06/17 13:26:29;;;;;;;6.13;5.30;;;;;;;;;;5048947;28;20195;-57
2021/06/17 13:28:59;;;;;;;6.68;5.75;;;;;;;;;;5043720;28;20216;-56
2021/06/17 13:31:27;;;;;;;7.07;6.05;;;;;;;;;;5025480;28;20720;-57
2021/06/17 13:33:54;;;;;;;6.20;4.90;;;;;;;;;;5044709;28;20664;-56
2021/06/17 13:36:20;;;;;;;5.85;5.25;;;;;;;;;;5051685;28;20185;-59
2021/06/17 13:38:46;;;;;;;5.88;5.35;;;;;;;;;;5049787;28;20201;-58
2021/06/17 13:41:13;;;;;;;6.97;6.28;;;;;;;;;;5051317;28;20239;-57
2021/06/17 13:43:39;;;;;;;7.60;5.55;;;;;;;;;;5040752;28;20188;-58
2021/06/17 13:46:06;;;;;;;8.90;5.35;;;;;;;;;;5046577;28;20182;-58
2021/06/17 13:48:35;;;;;;;8.35;5.80;;;;;;;;;;5042256;28;20762;-59
2021/06/17 13:51:02;;;;;;;6.82;5.40;;;;;;;;;;5050583;28;20640;-58
2021/06/17 13:53:28;;;;;;;6.45;5.85;;;;;;;;;;5046106;28;20577;-59
2021/06/17 13:55:54;;;;;;;6.65;5.55;;;;;;;;;;5048092;28;20288;-58
2021/06/17 13:58:20;;;;;;;6.75;5.60;;;;;;;;;;5041101;28;20277;-60
2021/06/17 14:00:46;;;;;;;6.20;5.43;;;;;;;;;;5041697;28;20181;-58
2021/06/17 14:03:12;;;;;;;6.03;5.35;;;;;;;;;;5046452;28;20685;-60
2021/06/17 14:05:39;;;;;;;7.03;5.60;;;;;;;;;;5049566;28;20185;-58
2021/06/17 14:08:06;;;;;;;7.82;5.60;;;;;;;;;;5046181;28;20663;-57
2021/06/17 14:10:32;;;;;;;6.75;5.70;;;;;;;;;;5051812;28;20211;-56
2021/06/17 14:13:00;;;;;;;6.45;5.28;;;;;;;;;;5045603;28;20177;-57
2021/06/17 14:15:27;;;;;;;9.27;5.95;;;;;;;;;;5041678;28;20296;-59
2021/06/17 14:17:55;;;;;;;6.00;5.60;;;;;;;;;;5041714;28;20220;-58
2021/06/17 14:20:21;;;;;;;7.32;5.97;;;;;;;;;;5048371;28;20700;-59
2021/06/17 14:22:47;;;;;;;6.22;5.50;;;;;;;;;;5049200;28;20200;-58
2021/06/17 14:25:14;;;;;;;6.88;5.53;;;;;;;;;;5045950;28;20181;-58
2021/06/17 14:27:40;;;;;;;6.15;5.65;;;;;;;;;;5041170;28;20185;-59
2021/06/17 14:30:08;;;;;;;6.10;5.40;;;;;;;;;;5039244;28;20761;-57
2021/06/17 14:32:34;;;;;;;11.20;6.05;;;;;;;;;;5004201;28;20185;-60
2021/06/17 14:35:00;;;;;;;6.68;6.07;;;;;;;;;;5051484;28;20209;-59
2021/06/17 14:37:26;;;;;;;8.23;5.35;;;;;;;;;;5052847;28;20185;-57
2021/06/17 14:39:52;;;;;;;6.82;6.22;;;;;;;;;;5053447;28;20549;-57
2021/06/17 14:42:18;;;;;;;7.32;6.35;;;;;;;;;;5051066;28;20630;-58
2021/06/17 14:44:44;;;;;;;6.90;5.57;;;;;;;;;;5047459;28;20536;-59
2021/06/17 14:47:10;;;;;;;6.32;5.72;;;;;;;;;;5046221;28;20192;-60
2021/06/17 14:49:36;;;;;;;8.48;6.47;;;;;;;;;;5050506;28;20180;-57
2021/06/17 14:52:03;;;;;;;7.78;5.30;;;;;;;;;;5054142;28;20181;-56
2021/06/17 14:54:29;;;;;;;9.18;4.63;;;;;;;;;;5052370;28;20177;-58
2021/06/17 14:56:55;;;;;;;6.70;5.45;;;;;;;;;;5048630;28;20439;-57